Latest Weather Observations for Salmon Gums RS

IDW60801

Issued at 8:35 pm WST Wednesday 23 April 2014 (issued every 30 minutes, with the page automatically refreshed every 10 minutes)

About weather observations | Map of weather stations | Latest weather observations for WA | Other Formats
Station Details ID: 012071 Name: SALMON GUMS RES.STN. Lat: -32.99 Lon: 121.62 Height: 249.0 m
Data from the previous 72 hours. | See also: Recent months at Salmon Gums RS
Date/Time
WST
Temp
°C
App
Temp
°C
Dew
Point
Rel
Hum
%
Delta-T
°C
Wind Press
QNH
hPa
Press
MSL
hPa
Rain
since 9 am
mm
Dir
 
Spd
km/h
Gust
km/h
Spd
kts
Gust
kts
23/08:30pm 13.1 11.8 10.1 82 1.6 SE 7 11 4 6 - - 0.0
23/08:00pm 14.3 12.9 10.9 80 1.8 SSE 9 13 5 7 - - 0.0
23/07:30pm 15.0 12.9 11.0 77 2.2 SSE 13 20 7 11 - - 0.0
23/07:00pm 15.7 13.0 10.5 71 2.8 SSE 15 22 8 12 - - 0.0
23/06:30pm 16.5 13.6 9.7 64 3.6 SSE 15 22 8 12 - - 0.0
23/06:00pm 17.4 13.8 8.5 56 4.6 SSE 17 24 9 13 - - 0.0
23/05:30pm 18.7 15.9 8.4 51 5.4 S 13 19 7 10 - - 0.0
23/05:00pm 19.6 16.3 8.0 47 6.1 S 15 20 8 11 - - 0.0
23/04:30pm 21.1 17.2 7.3 41 7.2 S 17 28 9 15 - - 0.0
23/04:00pm 22.5 18.9 5.0 32 8.8 S 13 19 7 10 - - 0.0
23/03:30pm 23.2 19.6 5.2 31 9.1 S 13 19 7 10 - - 0.0
23/03:00pm 23.4 19.4 4.9 30 9.3 SSW 15 24 8 13 - - 0.0
23/02:30pm 23.0 19.6 4.0 29 9.4 SSW 11 20 6 11 - - 0.0
23/02:00pm 23.5 20.1 4.0 28 9.7 SSW 11 17 6 9 - - 0.0
23/01:30pm 23.0 19.1 3.5 28 9.6 SW 13 24 7 13 - - 0.0
23/01:00pm 22.8 19.7 3.4 28 9.5 SSW 9 15 5 8 - - 0.0
23/12:30pm 23.1 19.2 3.6 28 9.6 S 13 24 7 13 - - 0.0
23/12:00pm 22.8 19.4 3.9 29 9.3 SSW 11 20 6 11 - - 0.0
23/11:30am 22.5 19.7 5.0 32 8.8 SW 9 22 5 12 - - 0.0
23/11:00am 21.7 18.7 4.3 32 8.6 SSW 9 15 5 8 - - 0.0
23/10:30am 21.2 18.7 3.9 32 8.4 WSW 6 11 3 6 - - 0.0
23/10:00am 19.6 17.2 4.5 37 7.4 SW 6 11 3 6 - - 0.0
23/09:30am 18.1 15.6 4.7 41 6.5 S 7 11 4 6 - - 0.0
23/09:00am 17.4 14.9 4.7 43 6.1 SSW 7 11 4 6 - - 0.0
23/08:30am 16.5 14.0 4.5 45 5.7 SW 7 9 4 5 - - 0.0
23/08:00am 14.3 12.8 5.1 54 4.4 WSW 2 4 1 2 - - 0.0
23/07:30am 10.5 8.5 4.4 66 2.8 NW 4 6 2 3 - - 0.0
23/07:29am 10.4 8.4 4.5 67 2.7 NW 4 6 2 3 - - 0.0
23/07:00am 5.4 2.6 2.1 79 1.4 WNW 6 7 3 4 - - 0.0
23/06:30am 2.9 -0.2 0.1 82 1.1 WNW 6 7 3 4 - - 0.0
23/06:00am 2.6 -1.1 -0.2 82 1.0 WNW 9 9 5 5 - - 0.0
23/05:30am 2.5 -0.7 -0.3 82 1.0 WNW 6 7 3 4 - - 0.0
23/05:00am 2.3 -0.9 -0.4 82 1.0 W 6 6 3 3 - - 0.0
23/04:30am 2.4 0.0 -0.4 82 1.0 W 2 4 1 2 - - 0.0
23/04:00am 2.5 -0.3 -0.3 82 1.0 W 4 4 2 2 - - 0.0
23/03:30am 2.7 -0.1 -0.2 81 1.1 W 4 4 2 2 - - 0.0
23/03:00am 2.6 0.5 -0.5 80 1.2 CALM 0 4 0 2 - - 0.0
23/02:30am 3.3 0.6 0.4 81 1.1 W 4 6 2 3 - - 0.0
23/02:00am 3.1 1.1 -0.2 79 1.2 CALM 0 0 0 0 - - 0.0
23/01:30am 3.5 1.5 -0.1 77 1.4 CALM 0 0 0 0 - - 0.0
23/01:00am 3.9 2.0 0.4 78 1.3 CALM 0 0 0 0 - - 0.0
23/12:30am 4.2 2.3 0.4 76 1.5 CALM 0 0 0 0 - - 0.0
23/12:00am 5.0 3.2 1.1 76 1.5 SE 0 0 0 0 - - 0.0
 
Date/Time
WST
Temp
°C
App
Temp
°C
Dew
Point
Rel
Hum
%
Delta-T
°C
Wind Press
QNH
hPa
Press
MSL
hPa
Rain
since 9 am
mm
Dir
 
Spd
km/h
Gust
km/h
Spd
kts
Gust
kts
22/11:30pm 5.8 4.0 1.5 74 1.7 CALM 0 0 0 0 - - 0.0
22/11:00pm 6.4 4.6 1.3 70 2.1 CALM 0 2 0 1 - - 0.0
22/10:30pm 7.3 5.2 1.4 66 2.4 SE 2 4 1 2 - - 0.0
22/10:00pm 9.1 7.0 3.9 70 2.3 SE 4 6 2 3 - - 0.0
22/09:30pm 9.1 6.8 2.9 65 2.7 SSE 4 6 2 3 - - 0.0
22/09:00pm 9.9 7.2 2.7 61 3.1 SSE 6 9 3 5 - - 0.0
22/08:30pm 9.2 6.5 0.6 55 3.5 NNE 4 6 2 3 - - 0.0
22/08:00pm 10.6 7.7 1.7 54 3.8 NNE 6 7 3 4 - - 0.0
22/07:30pm 13.3 10.6 3.7 52 4.4 NNE 7 9 4 5 - - 0.0
22/07:00pm 13.6 10.6 3.9 52 4.5 NNE 9 9 5 5 - - 0.0
22/06:30pm 13.5 10.7 3.0 49 4.7 NE 7 7 4 4 - - 0.0
22/06:00pm 15.1 12.0 3.6 46 5.3 NE 9 9 5 5 - - 0.0
22/05:30pm 17.2 15.8 3.8 41 6.3 CALM 0 0 0 0 - - 0.0
22/05:00pm 20.9 19.1 3.2 31 8.5 N 2 4 1 2 - - 0.0
22/04:30pm 21.9 19.7 3.6 30 8.9 NNW 4 9 2 5 - - 0.0
22/04:00pm 22.1 19.5 3.3 29 9.1 NW 6 13 3 7 - - 0.0
22/03:30pm 21.9 19.7 3.6 30 8.9 SW 4 9 2 5 - - 0.0
22/03:00pm 22.4 19.3 3.5 29 9.2 W 9 15 5 8 - - 0.0
22/02:30pm 21.7 19.5 3.4 30 8.9 W 4 15 2 8 - - 0.0
22/02:00pm 21.6 18.1 3.3 30 8.8 WNW 11 19 6 10 - - 0.0
22/01:30pm 21.6 18.3 4.7 33 8.4 N 11 17 6 9 - - 0.0
22/01:00pm 20.8 17.5 4.4 34 8.1 NW 11 20 6 11 - - 0.0
22/12:30pm 20.4 16.7 4.4 35 7.8 WNW 13 20 7 11 - - 0.0
22/12:00pm 20.0 17.5 4.9 37 7.4 N 7 17 4 9 - - 0.0
22/11:30am 20.1 17.4 5.4 38 7.3 NNW 9 15 5 8 - - 0.0
22/11:00am 18.8 16.4 5.3 41 6.7 N 7 13 4 7 - - 0.0
22/10:30am 18.4 16.1 5.6 43 6.3 NNW 7 17 4 9 - - 0.0
22/10:00am 17.7 15.1 5.9 46 5.8 NE 9 15 5 8 - - 0.0
22/09:30am 17.3 14.8 6.5 49 5.4 N 9 17 5 9 - - 0.0
22/09:00am 15.9 13.5 6.9 55 4.5 N 9 17 5 9 - - 0.0
22/08:30am 15.1 12.4 7.4 60 3.9 NNW 11 17 6 9 - - 0.0
22/08:00am 13.3 10.9 6.9 65 3.1 NNW 9 13 5 7 - - 0.0
22/07:30am 10.1 8.0 6.6 79 1.7 NNW 7 9 4 5 - - 0.0
22/07:00am 6.3 3.9 5.1 92 0.5 NNW 7 9 4 5 - - 0.0
22/06:30am 2.4 -0.6 1.1 91 0.5 NW 6 7 3 4 - - 0.0
22/06:00am 2.5 -0.6 1.2 91 0.5 NW 7 9 4 5 - - 0.0
22/05:30am 2.6 -0.5 1.3 91 0.5 NW 7 7 4 4 - - 0.0
22/05:00am 2.3 -0.7 0.8 90 0.6 NW 6 7 3 4 - - 0.0
22/04:30am 2.1 -0.9 0.5 89 0.6 NW 6 6 3 3 - - 0.0
22/04:00am 2.1 -0.6 0.5 89 0.6 NW 4 6 2 3 - - 0.0
22/03:30am 2.0 -1.1 0.2 88 0.7 NW 6 6 3 3 - - 0.0
22/03:00am 2.4 -0.2 0.8 89 0.6 NW 4 4 2 2 - - 0.0
22/02:30am 2.3 -0.9 0.5 88 0.7 WNW 7 9 4 5 - - 0.0
22/02:00am 2.5 0.2 0.6 87 0.7 WNW 2 4 1 2 - - 0.0
22/01:30am 2.7 -0.3 0.8 87 0.7 WNW 6 7 3 4 - - 0.0
22/01:00am 3.2 0.3 1.3 87 0.7 WNW 6 6 3 3 - - 0.0
22/12:30am 3.8 1.0 1.8 87 0.8 NW 6 7 3 4 - - 0.0
22/12:00am 3.7 1.2 1.4 85 0.9 SW 4 6 2 3 - - 0.0
 
Date/Time
WST
Temp
°C
App
Temp
°C
Dew
Point
Rel
Hum
%
Delta-T
°C
Wind Press
QNH
hPa
Press
MSL
hPa
Rain
since 9 am
mm
Dir
 
Spd
km/h
Gust
km/h
Spd
kts
Gust
kts
21/11:30pm 4.1 1.6 1.6 84 1.0 SSE 4 4 2 2 - - 0.0
21/11:00pm 4.7 3.0 2.1 83 1.1 CALM 0 0 0 0 - - 0.0
21/10:30pm 5.0 3.4 2.4 83 1.1 CALM 0 0 0 0 - - 0.0
21/10:00pm 5.9 4.3 2.7 80 1.3 CALM 0 0 0 0 - - 0.0
21/09:30pm 7.1 4.9 3.5 78 1.6 SSE 4 4 2 2 - - 0.0
21/09:00pm 7.6 6.2 3.6 76 1.7 CALM 0 0 0 0 - - 0.0
21/08:30pm 8.2 6.9 4.0 75 1.8 CALM 0 0 0 0 - - 0.0
21/08:00pm 9.5 7.0 3.7 67 2.6 SSE 6 7 3 4 - - 0.0
21/07:30pm 11.8 9.5 5.7 66 2.9 SSE 7 11 4 6 - - 0.0
21/07:00pm 11.5 9.2 4.7 63 3.1 S 6 7 3 4 - - 0.0
21/06:30pm 12.5 10.0 5.0 60 3.5 SSE 7 9 4 5 - - 0.0
21/06:00pm 14.5 11.0 5.6 55 4.3 S 13 19 7 10 - - 0.0
21/05:30pm 15.5 11.7 6.0 53 4.6 S 15 20 8 11 - - 0.0
21/05:00pm 16.5 12.4 6.1 50 5.1 S 17 26 9 14 - - 0.0
21/04:30pm 17.1 12.6 6.0 48 5.5 S 19 28 10 15 - - 0.0
21/04:00pm 18.0 13.5 6.2 46 5.9 S 19 26 10 14 - - 0.0
21/03:30pm 18.8 13.8 6.6 45 6.2 S 22 32 12 17 - - 0.0
21/03:00pm 19.5 15.1 7.3 45 6.3 SSW 20 30 11 16 - - 0.0
21/02:30pm 19.0 13.8 7.1 46 6.1 S 24 37 13 20 - - 0.0
21/02:00pm 20.6 16.2 7.6 43 6.8 S 20 32 11 17 - - 0.0
21/01:30pm 18.9 15.7 7.0 46 6.1 SSW 13 20 7 11 - - 0.0
21/01:00pm 20.3 16.4 7.3 43 6.7 S 17 24 9 13 - - 0.0
21/12:30pm 19.7 16.6 7.1 44 6.5 SSW 13 20 7 11 - - 0.0
21/12:00pm 19.0 16.0 7.8 48 5.8 SSW 13 22 7 12 - - 0.0
21/11:30am 18.1 14.1 8.4 53 5.1 SSW 19 28 10 15 - - 0.0
21/11:00am 18.8 15.6 8.5 51 5.4 SW 15 22 8 12 - - 0.0
21/10:30am 18.8 16.7 9.8 56 4.8 SW 11 20 6 11 - - 0.0
21/10:00am 17.6 15.4 9.5 59 4.3 S 11 20 6 11 - - 0.0
21/09:30am 17.4 14.6 10.1 62 3.9 S 15 20 8 11 - - 0.0
21/09:00am 16.7 14.3 11.4 71 2.9 SSW 15 22 8 12 - - 0.0
21/08:30am 15.9 13.4 9.8 67 3.2 SSW 13 20 7 11 - - 0.0
21/08:00am 15.0 13.6 11.0 77 2.2 SSW 9 13 5 7 - - 0.0
21/07:30am 13.8 12.9 11.3 85 1.3 SSW 7 9 4 5 - - 0.0
21/07:00am 12.9 12.5 11.1 89 1.0 SW 4 6 2 3 - - 0.0
21/06:30am 12.2 11.3 10.6 90 0.8 SSW 6 9 3 5 - - 0.0
21/06:00am 12.7 12.0 11.3 91 0.7 SSW 6 9 3 5 - - 0.0
21/05:30am 12.3 11.3 11.0 92 0.7 SW 7 9 4 5 - - 0.0
21/05:00am 11.0 9.9 9.8 92 0.6 W 6 7 3 4 - - 0.0
21/04:30am 11.1 10.3 9.5 90 0.8 WSW 4 6 2 3 - - 0.0
21/04:00am 12.4 11.5 10.8 90 0.8 WSW 6 7 3 4 - - 0.0
21/03:30am 13.2 12.4 11.6 90 0.9 SW 7 9 4 5 - - 0.0
21/03:00am 13.4 12.9 12.0 91 0.8 WSW 6 7 3 4 - - 0.0
21/02:30am 13.8 13.4 12.4 91 0.8 WSW 6 7 3 4 - - 0.0
21/02:00am 13.8 13.8 12.5 92 0.7 WSW 4 6 2 3 - - 0.0
21/01:30am 12.9 12.1 11.8 93 0.6 WSW 7 9 4 5 - - 0.0
21/01:00am 11.7 11.0 10.1 90 0.8 WSW 4 6 2 3 - - 0.0
21/12:30am 12.3 11.5 10.9 91 0.7 WSW 6 7 3 4 - - 0.0
21/12:00am 12.4 11.9 10.8 90 0.8 SSW 4 6 2 3 - - 0.0
 
Date/Time
WST
Temp
°C
App
Temp
°C
Dew
Point
Rel
Hum
%
Delta-T
°C
Wind Press
QNH
hPa
Press
MSL
hPa
Rain
since 9 am
mm
Dir
 
Spd
km/h
Gust
km/h
Spd
kts
Gust
kts
20/11:30pm 12.8 12.4 11.2 90 0.9 SSW 4 6 2 3 - - 0.0
20/11:00pm 13.2 12.9 11.3 88 1.0 S 4 6 2 3 - - 0.0
20/10:30pm 13.9 13.6 11.6 86 1.2 S 4 4 2 2 - - 0.0
20/10:00pm 14.5 13.8 12.0 85 1.4 S 7 9 4 5 - - 0.0
20/09:30pm 15.1 14.5 12.2 83 1.6 S 7 11 4 6 - - 0.0
20/09:00pm 15.9 14.7 12.8 82 1.7 S 11 17 6 9 - - 0.0

Other Formats:

Comma delimited format used in spreadsheet applications
http://www.bom.gov.au/fwo/IDW60801/IDW60801.95639.axf

JavaScript Object Notation format (JSON) in row-major order
http://www.bom.gov.au/fwo/IDW60801/IDW60801.95639.json